createdAt,value
2018-09-24T00:00:19.497Z,55.60
2018-09-24T00:02:45.379Z,55.12
2018-09-24T00:05:11.452Z,55.42
2018-09-24T00:07:37.509Z,55.29
2018-09-24T00:10:03.452Z,55.98
2018-09-24T00:12:29.404Z,55.80
2018-09-24T00:14:55.367Z,55.76
2018-09-24T00:17:21.320Z,55.67
2018-09-24T00:19:47.311Z,56.40
2018-09-24T00:22:13.264Z,56.04
2018-09-24T00:24:39.210Z,54.98
2018-09-24T00:27:05.168Z,55.37
2018-09-24T00:29:31.151Z,55.57
2018-09-24T00:31:57.124Z,55.67
2018-09-24T00:34:23.105Z,55.28
2018-09-24T00:36:49.050Z,55.23
2018-09-24T00:39:15.007Z,56.43
2018-09-24T00:41:40.970Z,55.83
2018-09-24T00:44:07.021Z,55.93
2018-09-24T00:46:32.985Z,55.05
2018-09-24T00:48:58.927Z,55.75
2018-09-24T00:51:24.999Z,54.91
2018-09-24T00:53:50.980Z,55.49
2018-09-24T00:56:16.927Z,55.67
2018-09-24T00:58:43.124Z,55.70
2018-09-24T01:01:09.089Z,55.49
2018-09-24T01:03:35.031Z,55.33
2018-09-24T01:06:00.995Z,54.72
2018-09-24T01:08:26.962Z,54.88
2018-09-24T01:10:52.926Z,55.28
2018-09-24T01:13:18.869Z,54.94
2018-09-24T01:15:44.998Z,55.04
2018-09-24T01:18:10.936Z,55.70
2018-09-24T01:20:36.901Z,54.70
2018-09-24T01:23:02.955Z,54.74
2018-09-24T01:25:28.919Z,55.04
2018-09-24T01:27:54.869Z,55.57
2018-09-24T01:30:20.818Z,54.66
2018-09-24T01:32:46.775Z,55.67
2018-09-24T01:35:12.749Z,55.45
2018-09-24T01:37:38.687Z,54.82
2018-09-24T01:40:04.660Z,54.73
2018-09-24T01:42:30.615Z,55.32
2018-09-24T01:44:56.565Z,55.33
2018-09-24T01:47:22.536Z,55.33
2018-09-24T01:49:48.479Z,54.72
2018-09-24T01:52:14.419Z,55.14
2018-09-24T01:54:40.360Z,54.69
2018-09-24T01:57:06.328Z,55.51
2018-09-24T01:59:32.281Z,54.60
2018-09-24T02:01:58.219Z,55.05
2018-09-24T02:04:24.164Z,55.05
2018-09-24T02:06:50.139Z,55.67
2018-09-24T02:09:16.086Z,55.15
2018-09-24T02:11:42.064Z,54.54
2018-09-24T02:14:08.010Z,55.08
2018-09-24T02:16:33.957Z,55.54
2018-09-24T02:18:59.927Z,54.70
2018-09-24T02:21:25.901Z,54.74
2018-09-24T02:23:51.839Z,55.11
2018-09-24T02:26:17.803Z,55.16
2018-09-24T02:28:43.779Z,55.56
2018-09-24T02:31:09.769Z,54.56
2018-09-24T02:33:35.724Z,54.95
2018-09-24T02:36:01.760Z,54.61
2018-09-24T02:38:27.726Z,54.76
2018-09-24T02:40:53.680Z,54.57
2018-09-24T02:43:19.616Z,55.05
2018-09-24T02:45:45.600Z,55.46
2018-09-24T02:48:11.535Z,55.47
2018-09-24T02:50:37.491Z,54.52
2018-09-24T02:53:03.648Z,54.93
2018-09-24T02:55:29.726Z,54.80
2018-09-24T02:57:55.748Z,55.62
2018-09-24T03:00:21.698Z,55.71
2018-09-24T03:02:47.652Z,54.18
2018-09-24T03:05:13.613Z,55.30
2018-09-24T03:07:39.595Z,55.41
2018-09-24T03:10:05.624Z,54.75
2018-09-24T03:12:31.605Z,55.42
2018-09-24T03:14:57.540Z,54.60
2018-09-24T03:17:23.488Z,54.63
2018-09-24T03:19:49.509Z,54.24
2018-09-24T03:22:15.465Z,54.50
2018-09-24T03:24:41.408Z,54.46
2018-09-24T03:27:07.352Z,54.30
2018-09-24T03:29:33.300Z,54.23
2018-09-24T03:31:59.362Z,54.38
2018-09-24T03:34:25.307Z,54.43
2018-09-24T03:36:51.356Z,54.13
2018-09-24T03:39:17.388Z,54.48
2018-09-24T03:41:43.667Z,54.52
2018-09-24T03:44:09.864Z,54.88
2018-09-24T03:46:35.808Z,54.54
2018-09-24T03:49:01.772Z,54.33
2018-09-24T03:51:27.723Z,54.67
2018-09-24T03:53:53.699Z,55.52
2018-09-24T03:56:19.641Z,55.14
2018-09-24T03:58:45.736Z,55.10
2018-09-24T04:01:11.645Z,54.10
2018-09-24T04:03:37.619Z,54.22
2018-09-24T04:06:03.604Z,54.05
2018-09-24T04:08:29.556Z,54.32
2018-09-24T04:10:55.568Z,54.25
2018-09-24T04:13:21.459Z,54.76
2018-09-24T04:15:47.455Z,55.04
2018-09-24T04:18:13.404Z,54.38
2018-09-24T04:20:39.355Z,54.13
2018-09-24T04:23:05.384Z,54.91
2018-09-24T04:25:31.324Z,54.07
2018-09-24T04:27:57.284Z,54.79
2018-09-24T04:30:23.234Z,53.99
2018-09-24T04:32:49.191Z,54.67
2018-09-24T04:35:15.173Z,55.03
2018-09-24T04:37:41.124Z,54.32
2018-09-24T04:40:07.096Z,54.86
2018-09-24T04:42:33.045Z,54.21
2018-09-24T04:44:58.999Z,54.52
2018-09-24T04:47:24.956Z,55.04
2018-09-24T04:49:50.920Z,53.93
2018-09-24T04:52:16.878Z,54.20
2018-09-24T04:54:42.823Z,53.76
2018-09-24T04:57:08.773Z,53.76
2018-09-24T04:59:34.721Z,54.44
2018-09-24T05:02:00.687Z,54.42
2018-09-24T05:04:26.627Z,53.84
2018-09-24T05:06:52.585Z,54.65
2018-09-24T05:09:18.532Z,53.67
2018-09-24T05:11:44.661Z,53.69
2018-09-24T05:14:10.636Z,54.00
2018-09-24T05:16:36.637Z,53.34
2018-09-24T05:19:02.571Z,54.41
2018-09-24T05:21:28.542Z,53.95
2018-09-24T05:23:54.512Z,53.89
2018-09-24T05:26:20.487Z,54.33
2018-09-24T05:28:46.468Z,54.63
2018-09-24T05:31:12.441Z,54.22
2018-09-24T05:33:38.389Z,54.33
2018-09-24T05:36:04.334Z,53.96
2018-09-24T05:38:30.288Z,53.55
2018-09-24T05:40:56.231Z,54.11
2018-09-24T05:43:22.183Z,54.26
2018-09-24T05:45:48.127Z,53.61
2018-09-24T05:48:14.068Z,53.69
2018-09-24T05:50:40.044Z,54.45
2018-09-24T05:53:05.972Z,53.97
2018-09-24T05:55:31.984Z,54.32
2018-09-24T05:57:57.960Z,53.77
2018-09-24T06:00:23.903Z,54.38
2018-09-24T06:02:49.883Z,53.69
2018-09-24T06:05:15.829Z,54.47
2018-09-24T06:07:41.833Z,53.73
2018-09-24T06:10:07.776Z,54.50
2018-09-24T06:12:33.829Z,53.35
2018-09-24T06:14:59.784Z,53.96
2018-09-24T06:17:25.736Z,53.42
2018-09-24T06:19:51.687Z,54.45
2018-09-24T06:22:17.662Z,54.07
2018-09-24T06:24:43.628Z,53.55
2018-09-24T06:27:09.567Z,53.96
2018-09-24T06:29:35.531Z,53.57
2018-09-24T06:32:01.504Z,54.71
2018-09-24T06:34:27.449Z,53.98
2018-09-24T06:36:53.395Z,53.08
2018-09-24T06:39:19.407Z,54.34
2018-09-24T06:41:45.368Z,54.22
2018-09-24T06:44:11.389Z,54.37
2018-09-24T06:46:37.754Z,53.79
2018-09-24T06:49:03.703Z,54.40
2018-09-24T06:51:29.680Z,54.07
2018-09-24T06:53:55.711Z,54.60
2018-09-24T06:56:21.788Z,54.33
2018-09-24T06:58:47.775Z,53.65
2018-09-24T07:01:13.725Z,54.75
2018-09-24T07:03:39.739Z,54.38
2018-09-24T07:06:05.745Z,55.10
2018-09-24T07:08:31.787Z,54.47
2018-09-24T07:10:57.725Z,54.95
2018-09-24T07:13:24.764Z,54.72
2018-09-24T07:15:50.711Z,54.26
2018-09-24T07:18:16.663Z,54.53
2018-09-24T07:20:42.617Z,54.54
2018-09-24T07:23:08.571Z,53.98
2018-09-24T07:25:34.526Z,54.07
2018-09-24T07:28:00.499Z,54.21
2018-09-24T07:30:26.456Z,54.26
2018-09-24T07:32:52.414Z,55.38
2018-09-24T07:35:18.365Z,54.48
2018-09-24T07:37:44.342Z,54.15
2018-09-24T07:40:10.333Z,54.26
2018-09-24T07:42:36.296Z,55.13
2018-09-24T07:45:02.244Z,55.09
2018-09-24T07:47:28.199Z,54.80
2018-09-24T07:49:54.151Z,55.00
2018-09-24T07:52:20.107Z,54.73
2018-09-24T07:54:46.208Z,55.57
2018-09-24T07:57:12.157Z,53.74
2018-09-24T07:59:38.110Z,54.32
2018-09-24T08:02:04.124Z,54.34
2018-09-24T08:04:30.091Z,54.77
2018-09-24T08:06:56.047Z,54.57
2018-09-24T08:09:22.009Z,54.71
2018-09-24T08:11:47.975Z,55.65
2018-09-24T08:14:13.949Z,54.39
2018-09-24T08:16:39.939Z,54.85
2018-09-24T08:19:05.876Z,55.62
2018-09-24T08:21:31.849Z,54.67
2018-09-24T08:23:57.791Z,54.92
2018-09-24T08:26:23.748Z,54.79
2018-09-24T08:28:49.721Z,55.57
2018-09-24T08:31:15.655Z,55.42
2018-09-24T08:33:41.619Z,54.92
2018-09-24T08:36:07.644Z,55.61
2018-09-24T08:38:33.557Z,55.98
2018-09-24T08:40:59.608Z,55.71
2018-09-24T08:43:25.568Z,55.88
2018-09-24T08:45:51.516Z,55.76
2018-09-24T08:48:17.492Z,55.73
2018-09-24T08:50:43.435Z,55.68
2018-09-24T08:53:09.544Z,55.55
2018-09-24T08:55:35.484Z,54.77
2018-09-24T08:58:01.452Z,55.86
2018-09-24T09:00:27.395Z,55.91
2018-09-24T09:02:53.430Z,55.54
2018-09-24T09:05:19.394Z,55.41
2018-09-24T09:07:45.376Z,55.63
2018-09-24T09:10:11.357Z,54.72
2018-09-24T09:12:37.299Z,55.35
2018-09-24T09:15:03.258Z,54.67
2018-09-24T09:17:29.279Z,55.15
2018-09-24T09:19:55.228Z,55.22
2018-09-24T09:22:21.179Z,55.01
2018-09-24T09:24:47.264Z,55.57
2018-09-24T09:27:13.220Z,56.26
2018-09-24T09:29:39.181Z,55.97
2018-09-24T09:32:05.136Z,55.16
2018-09-24T09:34:31.094Z,55.54
2018-09-24T09:36:57.060Z,55.70
2018-09-24T09:39:23.023Z,55.06
2018-09-24T09:41:49.061Z,55.55
2018-09-24T09:44:15.053Z,55.43
2018-09-24T09:46:41.015Z,55.24
2018-09-24T09:49:06.985Z,55.61
2018-09-24T09:51:32.960Z,55.89
2018-09-24T09:53:58.917Z,55.25
2018-09-24T09:56:24.855Z,54.93
2018-09-24T09:58:50.819Z,54.69
2018-09-24T10:01:16.764Z,56.04
2018-09-24T10:03:42.801Z,55.13
2018-09-24T10:06:08.746Z,55.24
2018-09-24T10:08:34.766Z,55.22
2018-09-24T10:11:00.743Z,54.78
2018-09-24T10:13:33.256Z,54.98
2018-09-24T10:15:59.225Z,54.58
2018-09-24T10:18:25.174Z,54.85
2018-09-24T10:20:51.144Z,55.97
2018-09-24T10:23:17.103Z,54.06
2018-09-24T10:25:43.045Z,54.67
2018-09-24T10:28:09.016Z,54.53
2018-09-24T10:30:34.977Z,54.74
2018-09-24T10:33:00.935Z,54.89
2018-09-24T10:35:26.896Z,54.71
2018-09-24T10:37:52.871Z,55.66
2018-09-24T10:40:18.843Z,54.60
2018-09-24T10:42:44.801Z,55.18
2018-09-24T10:45:10.751Z,55.24
2018-09-24T10:47:36.715Z,54.76
2018-09-24T10:50:02.665Z,55.38
2018-09-24T10:52:28.612Z,54.70
2018-09-24T10:54:54.561Z,55.13
2018-09-24T10:57:21.228Z,55.46
2018-09-24T10:59:47.200Z,54.83
2018-09-24T11:02:13.147Z,55.18
2018-09-24T11:04:39.144Z,54.92
2018-09-24T11:07:05.062Z,54.91
2018-09-24T11:09:31.104Z,55.54
2018-09-24T11:11:57.059Z,54.30
2018-09-24T11:14:23.043Z,54.65
2018-09-24T11:16:49.197Z,53.18
2018-09-24T11:19:14.951Z,52.87
2018-09-24T11:21:40.909Z,54.47
2018-09-24T11:24:06.861Z,54.57
2018-09-24T11:28:58.767Z,54.99
2018-09-24T11:31:24.724Z,55.19
2018-09-24T11:33:50.676Z,55.14
2018-09-24T11:36:16.655Z,55.14
2018-09-24T11:38:42.616Z,55.03
2018-09-24T11:41:08.554Z,55.07
2018-09-24T11:43:34.592Z,54.50
2018-09-24T11:46:00.557Z,55.18
2018-09-24T11:48:26.519Z,54.50
2018-09-24T11:50:52.499Z,54.97
2018-09-24T11:53:18.542Z,55.02
2018-09-24T11:55:44.489Z,54.57
2018-09-24T11:58:10.440Z,55.24
2018-09-24T12:00:36.388Z,55.36
2018-09-24T12:03:02.324Z,53.73
2018-09-24T12:05:28.291Z,55.31
2018-09-24T12:07:54.235Z,55.09
2018-09-24T12:10:20.188Z,54.68
2018-09-24T12:12:46.148Z,54.96
2018-09-24T12:15:12.101Z,54.91
2018-09-24T12:17:38.072Z,54.53
2018-09-24T12:20:04.122Z,54.98
2018-09-24T12:22:30.110Z,55.19
2018-09-24T12:24:56.080Z,55.00
2018-09-24T12:27:22.031Z,54.60
2018-09-24T12:29:48.001Z,54.88
2018-09-24T12:32:13.979Z,54.23
2018-09-24T12:34:39.983Z,54.86
2018-09-24T12:37:05.953Z,55.40
2018-09-24T12:39:31.928Z,54.47
2018-09-24T12:41:57.892Z,55.20
2018-09-24T12:44:23.863Z,54.14
2018-09-24T12:46:49.809Z,55.29
2018-09-24T12:49:15.752Z,54.72
2018-09-24T12:51:41.748Z,54.57
2018-09-24T12:54:07.684Z,55.25
2018-09-24T12:56:33.636Z,55.04
2018-09-24T12:58:59.628Z,54.28
2018-09-24T13:01:25.563Z,55.20
2018-09-24T13:03:51.505Z,54.74
2018-09-24T13:06:17.467Z,54.64
2018-09-24T13:08:43.435Z,54.36
2018-09-24T13:11:09.384Z,55.26
2018-09-24T13:13:35.351Z,54.61
2018-09-24T13:16:01.327Z,54.28
2018-09-24T13:18:27.302Z,54.93
2018-09-24T13:20:53.260Z,54.20
2018-09-24T13:23:19.454Z,54.83
2018-09-24T13:25:45.415Z,54.62
2018-09-24T13:28:12.236Z,54.84
2018-09-24T13:30:38.205Z,54.99
2018-09-24T13:33:04.162Z,55.07
2018-09-24T13:35:30.104Z,54.85
2018-09-24T13:37:56.057Z,55.23
2018-09-24T13:40:22.002Z,54.85
2018-09-24T13:42:48.144Z,55.26
2018-09-24T13:45:14.177Z,55.44
2018-09-24T13:47:40.073Z,55.15
2018-09-24T13:50:06.119Z,55.43
2018-09-24T13:52:32.076Z,55.15
2018-09-24T13:54:58.023Z,55.30
2018-09-24T13:57:23.980Z,55.15
2018-09-24T13:59:49.928Z,54.81
2018-09-24T14:02:15.905Z,54.84
2018-09-24T14:04:41.892Z,55.17
2018-09-24T14:07:07.852Z,55.28
2018-09-24T14:09:33.817Z,54.68
2018-09-24T14:11:59.952Z,54.99
2018-09-24T14:14:25.907Z,54.93
2018-09-24T14:16:51.879Z,54.72
2018-09-24T14:19:17.872Z,54.46
2018-09-24T14:21:43.866Z,54.70
2018-09-24T14:24:09.815Z,55.42
2018-09-24T14:26:35.788Z,54.18
2018-09-24T14:29:01.891Z,55.24
2018-09-24T14:31:27.956Z,54.25
2018-09-24T14:33:53.932Z,55.25
2018-09-24T14:36:19.889Z,54.79
2018-09-24T14:38:45.935Z,54.63
2018-09-24T14:41:11.894Z,55.39
2018-09-24T14:43:37.870Z,55.26
2018-09-24T14:46:03.811Z,55.18
2018-09-24T14:48:29.800Z,54.45
2018-09-24T14:50:55.763Z,53.78
2018-09-24T14:53:21.719Z,54.98
2018-09-24T14:55:47.702Z,54.42
2018-09-24T14:58:13.668Z,55.24
2018-09-24T15:00:39.628Z,54.17
2018-09-24T15:03:05.592Z,54.71
2018-09-24T15:05:31.639Z,55.04
2018-09-24T15:07:57.600Z,53.98
2018-09-24T15:10:23.572Z,55.17
2018-09-24T15:12:49.521Z,54.65
2018-09-24T15:15:15.483Z,54.03
2018-09-24T15:17:41.503Z,54.63
2018-09-24T15:20:07.456Z,54.11
2018-09-24T15:22:33.434Z,54.33
2018-09-24T15:24:59.384Z,54.28
2018-09-24T15:27:25.371Z,53.78
2018-09-24T15:29:51.317Z,54.44
2018-09-24T15:32:17.294Z,53.87
2018-09-24T15:34:43.245Z,54.10
2018-09-24T15:37:09.212Z,53.85
2018-09-24T15:39:35.127Z,54.58
2018-09-24T15:42:01.085Z,54.90
2018-09-24T15:44:27.073Z,54.13
2018-09-24T15:46:53.035Z,54.57
2018-09-24T15:49:19.054Z,54.61
2018-09-24T15:51:45.029Z,53.87
2018-09-24T15:54:10.985Z,54.47
2018-09-24T15:56:36.947Z,53.60
2018-09-24T15:59:02.894Z,53.72
2018-09-24T16:01:28.837Z,53.87
2018-09-24T16:03:54.798Z,53.71
2018-09-24T16:06:20.748Z,53.78
2018-09-24T16:08:46.719Z,53.62
2018-09-24T16:11:12.679Z,54.03
2018-09-24T16:13:38.629Z,53.96
2018-09-24T16:16:04.631Z,53.87
2018-09-24T16:18:30.595Z,53.76
2018-09-24T16:20:56.584Z,53.49
2018-09-24T16:23:22.547Z,53.60
2018-09-24T16:25:48.535Z,53.93
2018-09-24T16:28:14.480Z,54.39
2018-09-24T16:30:40.482Z,53.79
2018-09-24T16:33:06.435Z,53.54
2018-09-24T16:35:32.366Z,53.87
2018-09-24T16:37:58.320Z,54.47
2018-09-24T16:40:24.317Z,54.57
2018-09-24T16:42:50.266Z,54.41
2018-09-24T16:45:16.240Z,54.51
2018-09-24T16:47:42.199Z,54.16
2018-09-24T16:50:08.158Z,53.82
2018-09-24T16:52:34.126Z,54.46
2018-09-24T16:55:00.072Z,53.80
2018-09-24T16:57:26.052Z,54.61
2018-09-24T16:59:52.004Z,54.77
2018-09-24T17:02:18.129Z,55.05
2018-09-24T17:04:44.091Z,53.99
2018-09-24T17:07:10.136Z,53.73
2018-09-24T17:09:36.119Z,53.89
2018-09-24T17:12:02.098Z,53.85
2018-09-24T17:14:28.045Z,54.87
2018-09-24T17:16:54.039Z,54.15
2018-09-24T17:19:20.004Z,54.79
2018-09-24T17:21:45.973Z,54.40
2018-09-24T17:24:11.933Z,54.12
2018-09-24T17:26:37.880Z,54.81
2018-09-24T17:29:03.895Z,53.99
2018-09-24T17:31:29.801Z,54.37
2018-09-24T17:33:55.758Z,54.99
2018-09-24T17:36:22.213Z,54.36
2018-09-24T17:38:48.295Z,54.90
2018-09-24T17:41:14.250Z,54.36
2018-09-24T17:43:40.216Z,54.34
2018-09-24T17:46:06.242Z,54.82
2018-09-24T17:48:32.167Z,55.28
2018-09-24T17:50:58.256Z,54.34
2018-09-24T17:53:24.445Z,54.80
2018-09-24T17:55:50.383Z,55.07
2018-09-24T17:58:16.462Z,54.67
2018-09-24T18:00:42.480Z,55.04
2018-09-24T18:03:08.428Z,54.89
2018-09-24T18:05:34.336Z,55.25
2018-09-24T18:08:00.424Z,54.67
2018-09-24T18:10:26.386Z,54.05
2018-09-24T18:12:52.337Z,54.54
2018-09-24T18:15:18.364Z,54.74
2018-09-24T18:17:44.383Z,54.79
2018-09-24T18:20:10.380Z,54.04
2018-09-24T18:22:36.356Z,54.18
2018-09-24T18:25:02.366Z,54.00
2018-09-24T18:27:28.312Z,53.82
2018-09-24T18:29:54.258Z,54.78
2018-09-24T18:32:20.297Z,55.00
2018-09-24T18:34:46.276Z,54.33
2018-09-24T18:37:12.342Z,54.65
2018-09-24T18:39:38.203Z,54.92
2018-09-24T18:42:04.159Z,54.07
2018-09-24T18:44:30.100Z,54.64
2018-09-24T18:46:56.089Z,54.50
2018-09-24T18:49:22.048Z,54.57
2018-09-24T18:51:48.000Z,53.71
2018-09-24T18:54:13.955Z,54.14
2018-09-24T18:56:39.911Z,54.46
2018-09-24T18:59:05.899Z,54.03
2018-09-24T19:01:31.965Z,53.98
2018-09-24T19:03:57.958Z,54.00
2018-09-24T19:06:23.925Z,54.74
2018-09-24T19:08:49.876Z,54.58
2018-09-24T19:11:15.890Z,53.83
2018-09-24T19:13:41.848Z,54.05
2018-09-24T19:16:07.857Z,54.43
2018-09-24T19:18:33.887Z,54.07
2018-09-24T19:20:59.806Z,54.06
2018-09-24T19:23:25.753Z,54.71
2018-09-24T19:25:51.764Z,54.54
2018-09-24T19:28:17.708Z,53.78
2018-09-24T19:30:43.714Z,54.44
2018-09-24T19:33:09.700Z,53.99
2018-09-24T19:35:35.673Z,54.16
2018-09-24T19:38:01.666Z,54.28
2018-09-24T19:40:27.636Z,53.58
2018-09-24T19:42:53.655Z,54.35
2018-09-24T19:45:19.694Z,54.40
2018-09-24T19:47:45.648Z,54.10
2018-09-24T19:50:11.612Z,53.92
2018-09-24T19:52:37.616Z,54.37
2018-09-24T19:55:03.810Z,53.99
2018-09-24T19:57:29.820Z,53.67
2018-09-24T19:59:55.752Z,54.25
2018-09-24T20:02:21.713Z,54.04
2018-09-24T20:04:47.761Z,54.52
2018-09-24T20:07:13.731Z,53.02
2018-09-24T20:09:39.677Z,53.78
2018-09-24T20:12:05.632Z,53.00
2018-09-24T20:14:31.577Z,54.43
2018-09-24T20:16:57.601Z,54.45
2018-09-24T20:19:23.510Z,54.46
2018-09-24T20:21:49.493Z,54.31
2018-09-24T20:24:15.457Z,54.30
2018-09-24T20:26:41.471Z,54.68
2018-09-24T20:29:07.423Z,54.41
2018-09-24T20:31:33.498Z,54.33
2018-09-24T20:34:00.770Z,54.45
2018-09-24T20:36:26.807Z,54.24
2018-09-24T20:38:52.752Z,53.96
2018-09-24T20:41:18.721Z,53.96
2018-09-24T20:43:44.689Z,54.36
2018-09-24T20:46:10.691Z,54.18
2018-09-24T20:48:36.602Z,53.76
2018-09-24T20:51:02.637Z,54.82
2018-09-24T20:53:28.590Z,53.68
2018-09-24T20:55:54.537Z,54.03
2018-09-24T20:58:20.508Z,53.65
2018-09-24T21:00:46.583Z,53.59
2018-09-24T21:03:12.522Z,54.24
2018-09-24T21:05:38.481Z,54.35
2018-09-24T21:08:04.449Z,54.03
2018-09-24T21:10:30.473Z,54.41
2018-09-24T21:12:56.437Z,54.87
2018-09-24T21:15:22.591Z,54.43
2018-09-24T21:17:48.909Z,54.78
2018-09-24T21:20:15.116Z,54.20
2018-09-24T21:22:41.358Z,54.60
2018-09-24T21:25:07.588Z,54.37
2018-09-24T21:27:33.621Z,53.74
2018-09-24T21:29:59.783Z,53.27
2018-09-24T21:32:25.767Z,52.82
2018-09-24T21:34:51.709Z,52.85
2018-09-24T21:37:17.686Z,53.48
2018-09-24T21:39:43.754Z,53.32
2018-09-24T21:42:09.720Z,52.27
2018-09-24T21:44:35.710Z,53.63
2018-09-24T21:47:01.769Z,52.59
2018-09-24T21:49:27.751Z,51.54
2018-09-24T21:51:53.703Z,50.23
2018-09-24T21:54:19.662Z,52.87
2018-09-24T21:56:45.604Z,51.72
2018-09-24T21:59:11.561Z,51.86
2018-09-24T22:01:37.519Z,52.54
2018-09-24T22:04:03.457Z,52.04
2018-09-24T22:06:29.407Z,51.88
2018-09-24T22:08:55.395Z,52.39
2018-09-24T22:11:21.351Z,52.62
2018-09-24T22:13:47.317Z,52.38
2018-09-24T22:16:13.424Z,51.26
2018-09-24T22:18:39.372Z,51.93
2018-09-24T22:21:05.347Z,51.32
2018-09-24T22:23:31.433Z,50.91
2018-09-24T22:25:57.344Z,50.21
2018-09-24T22:28:23.297Z,50.60
2018-09-24T22:30:49.354Z,52.04
2018-09-24T22:33:15.296Z,50.69
2018-09-24T22:35:41.285Z,50.83
2018-09-24T22:38:07.235Z,50.50
2018-09-24T22:40:33.195Z,50.92
2018-09-24T22:42:59.152Z,49.99
2018-09-24T22:45:25.372Z,50.28
2018-09-24T22:47:51.408Z,50.91
2018-09-24T22:50:17.348Z,52.36
2018-09-24T22:52:43.385Z,52.57
2018-09-24T22:55:09.367Z,52.62
2018-09-24T22:57:35.341Z,52.17
2018-09-24T23:00:01.281Z,52.73
2018-09-24T23:02:27.304Z,53.15
2018-09-24T23:04:53.262Z,52.68
2018-09-24T23:07:19.236Z,52.60
2018-09-24T23:09:45.187Z,52.66
2018-09-24T23:12:11.188Z,52.79
2018-09-24T23:14:37.144Z,53.44
2018-09-24T23:17:03.104Z,52.79
2018-09-24T23:19:29.053Z,53.34
2018-09-24T23:21:55.011Z,52.93
2018-09-24T23:24:20.997Z,52.82
2018-09-24T23:26:47.045Z,53.82
2018-09-24T23:29:12.988Z,53.79
2018-09-24T23:31:38.948Z,53.17
2018-09-24T23:34:04.975Z,53.23
2018-09-24T23:36:30.937Z,53.72
2018-09-24T23:38:56.906Z,52.88
2018-09-24T23:41:22.849Z,53.95
2018-09-24T23:43:48.825Z,53.69
2018-09-24T23:46:14.796Z,53.19
2018-09-24T23:48:40.738Z,53.20
2018-09-24T23:51:06.692Z,53.78
2018-09-24T23:53:32.637Z,53.60
2018-09-24T23:55:58.786Z,53.68
2018-09-24T23:58:24.723Z,53.62
